createdAt,value
2017-05-28T00:00:46.161Z,64.80
2017-05-28T00:03:16.018Z,65.10
2017-05-28T00:05:45.848Z,65.40
2017-05-28T00:08:15.633Z,65.40
2017-05-28T00:10:53.820Z,65.70
2017-05-28T00:13:24.435Z,67.00
2017-05-28T00:15:54.316Z,67.20
2017-05-28T00:18:24.053Z,67.40
2017-05-28T00:20:53.860Z,67.80
2017-05-28T00:23:23.705Z,68.20
2017-05-28T00:25:53.561Z,69.10
2017-05-28T00:28:23.719Z,70.00
2017-05-28T00:30:53.594Z,70.50
2017-05-28T00:33:24.150Z,70.80
2017-05-28T00:35:53.912Z,71.50
2017-05-28T00:38:23.728Z,71.50
2017-05-28T00:40:53.523Z,72.10
2017-05-28T00:43:22.796Z,72.00
2017-05-28T00:45:53.612Z,73.10
2017-05-28T00:48:23.584Z,73.50
2017-05-28T00:50:53.384Z,73.70
2017-05-28T00:53:22.449Z,73.70
2017-05-28T00:55:52.338Z,73.50
2017-05-28T00:58:22.179Z,73.50
2017-05-28T01:00:52.050Z,73.70
2017-05-28T01:03:21.910Z,74.00
2017-05-28T01:05:51.782Z,74.30
2017-05-28T01:08:21.981Z,74.60
2017-05-28T01:10:52.069Z,74.80
2017-05-28T01:13:22.130Z,75.20
2017-05-28T01:15:52.184Z,75.50
2017-05-28T01:18:22.032Z,75.50
2017-05-28T01:20:51.939Z,75.50
2017-05-28T01:23:22.806Z,76.60
2017-05-28T01:25:52.573Z,77.20
2017-05-28T01:28:22.293Z,76.50
2017-05-28T01:30:52.128Z,77.10
2017-05-28T01:33:21.194Z,77.10
2017-05-28T01:35:51.013Z,77.40
2017-05-28T01:38:20.862Z,77.00
2017-05-28T01:40:50.643Z,76.90
2017-05-28T01:43:20.445Z,77.80
2017-05-28T01:45:49.415Z,77.60
2017-05-28T01:48:19.330Z,78.60
2017-05-28T01:50:49.153Z,79.70
2017-05-28T01:53:18.916Z,79.40
2017-05-28T01:55:48.994Z,79.90
2017-05-28T01:58:18.049Z,79.80
2017-05-28T02:00:47.898Z,79.20
2017-05-28T02:03:16.963Z,79.20
2017-05-28T02:05:46.711Z,79.80
2017-05-28T02:08:15.746Z,79.70
2017-05-28T02:10:45.562Z,80.10
2017-05-28T02:13:15.377Z,80.60
2017-05-28T02:15:44.454Z,80.50
2017-05-28T02:18:14.275Z,79.70
2017-05-28T02:20:44.147Z,80.20
2017-05-28T02:23:13.948Z,80.70
2017-05-28T02:25:42.997Z,80.60
2017-05-28T02:28:12.777Z,81.00
2017-05-28T02:30:42.590Z,81.40
2017-05-28T02:33:12.433Z,81.90
2017-05-28T02:35:41.468Z,81.90
2017-05-28T02:38:11.227Z,82.60
2017-05-28T02:40:41.107Z,83.00
2017-05-28T02:43:10.158Z,83.00
2017-05-28T02:45:40.048Z,83.00
2017-05-28T02:48:09.067Z,83.00
2017-05-28T02:50:38.116Z,83.00
2017-05-28T02:53:07.292Z,82.90
2017-05-28T02:55:37.151Z,82.50
2017-05-28T02:58:06.948Z,83.00
2017-05-28T03:00:36.798Z,83.10
2017-05-28T03:03:06.705Z,82.90
2017-05-28T03:05:36.593Z,83.00
2017-05-28T03:08:06.363Z,84.00
2017-05-28T03:10:35.448Z,83.70
2017-05-28T03:13:04.495Z,84.80
2017-05-28T03:15:34.328Z,84.30
2017-05-28T03:18:03.843Z,84.20
2017-05-28T03:20:33.591Z,84.50
2017-05-28T03:23:03.642Z,84.40
2017-05-28T03:25:33.395Z,84.20
2017-05-28T03:28:03.421Z,84.90
2017-05-28T03:30:33.225Z,85.00
2017-05-28T03:33:03.130Z,85.60
2017-05-28T03:35:32.213Z,84.70
2017-05-28T03:38:02.597Z,84.60
2017-05-28T03:40:32.640Z,83.80
2017-05-28T03:43:02.392Z,83.80
2017-05-28T03:45:32.248Z,84.20
2017-05-28T03:48:01.253Z,84.20
2017-05-28T03:50:31.083Z,84.90
2017-05-28T03:53:00.962Z,85.30
2017-05-28T03:55:30.794Z,85.90
2017-05-28T03:57:59.832Z,85.80
2017-05-28T04:00:28.886Z,85.40
2017-05-28T04:02:59.160Z,86.10
2017-05-28T04:05:29.176Z,86.00
2017-05-28T04:07:58.160Z,85.90
2017-05-28T04:10:28.819Z,85.80
2017-05-28T04:12:58.592Z,85.80
2017-05-28T04:15:28.455Z,85.80
2017-05-28T04:17:58.186Z,85.50
2017-05-28T04:20:27.579Z,85.50
2017-05-28T04:22:57.363Z,85.70
2017-05-28T04:25:29.485Z,86.10
2017-05-28T04:27:59.323Z,85.50
2017-05-28T04:30:30.485Z,84.60
2017-05-28T04:33:00.231Z,84.60
2017-05-28T04:35:29.244Z,84.60
2017-05-28T04:37:59.099Z,82.10
2017-05-28T04:40:29.506Z,79.80
2017-05-28T04:42:59.222Z,77.60
2017-05-28T04:45:29.189Z,73.80
2017-05-28T04:47:58.959Z,73.80
2017-05-28T04:50:28.820Z,74.20
2017-05-28T04:52:58.651Z,73.40
2017-05-28T04:55:28.895Z,73.20
2017-05-28T04:57:58.695Z,73.20
2017-05-28T05:00:28.542Z,74.40
2017-05-28T05:02:58.386Z,74.30
2017-05-28T05:05:28.164Z,72.00
2017-05-28T05:07:57.958Z,69.80
2017-05-28T05:10:27.734Z,66.50
2017-05-28T05:12:57.486Z,64.10
2017-05-28T05:15:27.387Z,61.70
2017-05-28T05:17:57.198Z,59.00
2017-05-28T05:20:26.998Z,56.70
2017-05-28T05:22:56.800Z,54.80
2017-05-28T05:25:26.666Z,54.20
2017-05-28T05:27:57.174Z,52.90
2017-05-28T05:30:27.057Z,51.60
2017-05-28T05:32:56.819Z,52.40
2017-05-28T05:35:26.707Z,53.20
2017-05-28T05:37:56.456Z,52.90
2017-05-28T05:40:26.309Z,53.30
2017-05-28T05:42:56.335Z,51.60
2017-05-28T05:45:26.162Z,49.70
2017-05-28T05:47:55.909Z,48.60
2017-05-28T05:50:25.734Z,46.40
2017-05-28T05:52:55.477Z,44.20
2017-05-28T05:55:25.271Z,42.60
2017-05-28T05:57:55.095Z,41.40
2017-05-28T06:00:25.463Z,40.70
2017-05-28T06:02:55.221Z,39.90
2017-05-28T06:05:25.050Z,40.30
2017-05-28T06:07:55.743Z,39.30
2017-05-28T06:10:25.704Z,39.40
2017-05-28T06:12:55.480Z,39.20
2017-05-28T06:15:25.403Z,38.40
2017-05-28T06:17:55.480Z,36.60
2017-05-28T06:20:25.417Z,35.90
2017-05-28T06:22:55.159Z,35.00
2017-05-28T06:25:24.996Z,34.20
2017-05-28T06:27:54.785Z,34.10
2017-05-28T06:30:24.786Z,33.80
2017-05-28T06:32:56.921Z,36.00
2017-05-28T06:35:26.728Z,39.60
2017-05-28T06:37:56.509Z,41.20
2017-05-28T06:40:26.277Z,39.80
2017-05-28T06:42:55.260Z,39.80
2017-05-28T06:45:25.761Z,38.50
2017-05-28T06:47:55.576Z,34.30
2017-05-28T06:50:25.463Z,33.20
2017-05-28T06:52:55.388Z,32.30
2017-05-28T06:55:25.206Z,30.80
2017-05-28T06:57:55.101Z,31.50
2017-05-28T07:00:24.247Z,31.40
2017-05-28T07:02:54.042Z,29.60
2017-05-28T07:05:23.818Z,29.30
2017-05-28T07:07:53.718Z,28.80
2017-05-28T07:10:23.597Z,29.00
2017-05-28T07:12:53.912Z,30.70
2017-05-28T07:15:23.712Z,32.70
2017-05-28T07:17:53.524Z,31.40
2017-05-28T07:20:23.473Z,30.80
2017-05-28T07:22:53.547Z,30.80
2017-05-28T07:25:23.411Z,32.90
2017-05-28T07:27:53.198Z,37.50
2017-05-28T07:30:23.321Z,41.00
2017-05-28T07:32:53.184Z,41.20
2017-05-28T07:35:23.112Z,42.60
2017-05-28T07:37:53.042Z,43.20
2017-05-28T07:40:24.011Z,44.30
2017-05-28T07:42:54.244Z,43.90
2017-05-28T07:45:23.528Z,43.80
2017-05-28T07:47:53.321Z,47.20
2017-05-28T07:50:23.285Z,47.90
2017-05-28T07:52:53.130Z,49.30
2017-05-28T07:55:23.177Z,48.40
2017-05-28T07:57:53.135Z,46.80
2017-05-28T08:00:23.066Z,46.30
2017-05-28T08:02:53.206Z,45.30
2017-05-28T08:05:23.929Z,41.90
2017-05-28T08:07:53.806Z,38.80
2017-05-28T08:10:23.652Z,36.20
2017-05-28T08:12:53.794Z,34.00
2017-05-28T08:15:25.277Z,32.40
2017-05-28T08:17:54.433Z,32.30
2017-05-28T08:20:24.343Z,32.80
2017-05-28T08:22:54.917Z,31.30
2017-05-28T08:25:25.063Z,32.10
2017-05-28T08:27:55.226Z,32.60
2017-05-28T08:30:25.071Z,29.80
2017-05-28T08:32:55.023Z,30.30
2017-05-28T08:35:24.865Z,31.90
2017-05-28T08:37:54.729Z,30.00
2017-05-28T08:40:25.248Z,28.50
2017-05-28T08:42:55.106Z,25.80
2017-05-28T08:45:25.051Z,28.50
2017-05-28T08:47:54.872Z,27.80
2017-05-28T08:50:24.838Z,28.10
2017-05-28T08:52:55.088Z,27.30
2017-05-28T08:55:25.268Z,26.20
2017-05-28T08:57:55.109Z,25.70
2017-05-28T09:00:25.317Z,26.50
2017-05-28T09:02:55.112Z,26.50
2017-05-28T09:05:24.999Z,27.30
2017-05-28T09:07:54.162Z,27.30
2017-05-28T09:10:33.778Z,25.90
2017-05-28T09:13:07.612Z,25.00
2017-05-28T09:15:37.856Z,24.80
2017-05-28T09:18:09.413Z,25.10
2017-05-28T09:20:39.923Z,25.20
2017-05-28T09:23:09.925Z,26.60
2017-05-28T09:25:39.233Z,26.60
2017-05-28T09:28:09.132Z,26.70
2017-05-28T09:30:38.401Z,26.60
2017-05-28T09:33:11.690Z,26.30
2017-05-28T09:35:41.593Z,25.50
2017-05-28T09:38:11.601Z,24.70
2017-05-28T09:40:42.218Z,25.80
2017-05-28T09:43:12.140Z,24.60
2017-05-28T09:45:42.793Z,27.40
2017-05-28T09:48:13.047Z,26.90
2017-05-28T09:50:42.955Z,24.20
2017-05-28T09:53:12.976Z,23.60
2017-05-28T09:55:42.916Z,24.30
2017-05-28T09:58:12.832Z,25.30
2017-05-28T10:00:44.801Z,24.70
2017-05-28T10:03:14.702Z,25.50
2017-05-28T10:05:44.544Z,24.80
2017-05-28T10:08:14.472Z,23.10
2017-05-28T10:10:44.383Z,24.20
2017-05-28T10:13:14.304Z,25.00
2017-05-28T10:15:44.453Z,25.20
2017-05-28T10:18:14.350Z,25.60
2017-05-28T10:20:44.239Z,25.70
2017-05-28T10:23:14.230Z,24.70
2017-05-28T10:25:44.168Z,27.00
2017-05-28T10:28:15.072Z,26.00
2017-05-28T10:30:45.757Z,26.50
2017-05-28T10:33:15.696Z,26.10
2017-05-28T10:35:47.045Z,26.10
2017-05-28T10:38:17.149Z,27.80
2017-05-28T10:40:47.204Z,27.10
2017-05-28T10:43:17.196Z,28.00
2017-05-28T10:45:47.618Z,27.30
2017-05-28T10:48:17.635Z,26.00
2017-05-28T10:50:47.922Z,25.90
2017-05-28T10:53:18.766Z,27.00
2017-05-28T10:55:48.794Z,25.70
2017-05-28T10:58:19.054Z,25.60
2017-05-28T11:00:50.280Z,26.60
2017-05-28T11:04:22.219Z,26.60
2017-05-28T11:06:52.168Z,29.80
2017-05-28T11:09:22.678Z,29.20
2017-05-28T11:11:53.415Z,28.20
2017-05-28T11:14:23.282Z,26.80
2017-05-28T11:16:53.153Z,25.70
2017-05-28T11:19:23.141Z,26.40
2017-05-28T11:22:00.245Z,27.40
2017-05-28T11:24:30.253Z,27.50
2017-05-28T11:27:00.118Z,28.60
2017-05-28T11:29:30.290Z,30.70
2017-05-28T11:32:00.922Z,28.90
2017-05-28T11:34:30.879Z,30.00
2017-05-28T11:37:00.779Z,29.40
2017-05-28T11:39:31.143Z,27.50
2017-05-28T11:42:01.052Z,28.30
2017-05-28T11:44:30.961Z,28.70
2017-05-28T11:47:00.838Z,30.20
2017-05-28T11:49:30.805Z,29.70
2017-05-28T11:52:00.734Z,29.70
2017-05-28T11:54:30.630Z,29.80
2017-05-28T11:57:06.030Z,34.60
2017-05-28T11:59:35.940Z,35.90
2017-05-28T12:02:06.243Z,31.70
2017-05-28T12:04:36.626Z,36.30
2017-05-28T12:12:26.307Z,36.40
2017-05-28T12:14:56.205Z,36.40
2017-05-28T12:17:26.316Z,38.10
2017-05-28T12:19:56.296Z,38.50
2017-05-28T12:22:26.303Z,41.60
2017-05-28T12:24:56.221Z,41.60
2017-05-28T12:27:25.527Z,41.60
2017-05-28T12:29:56.762Z,41.40
2017-05-28T12:32:27.616Z,41.90
2017-05-28T12:34:57.547Z,43.10
2017-05-28T12:37:27.431Z,42.90
2017-05-28T12:39:58.328Z,43.50
2017-05-28T12:42:29.044Z,43.80
2017-05-28T12:44:59.192Z,43.00
2017-05-28T12:47:29.638Z,41.60
2017-05-28T12:49:59.650Z,43.80
2017-05-28T12:52:33.469Z,44.70
2017-05-28T12:55:12.028Z,46.80
2017-05-28T12:57:47.542Z,47.60
2017-05-28T13:03:12.690Z,52.20
2017-05-28T13:05:43.823Z,52.50
2017-05-28T13:08:15.250Z,52.30
2017-05-28T13:10:46.200Z,53.00
2017-05-28T13:13:16.457Z,53.80
2017-05-28T13:15:47.438Z,54.60
2017-05-28T13:18:20.559Z,54.60
2017-05-28T13:20:51.558Z,55.70
2017-05-28T13:23:29.725Z,57.00
2017-05-28T13:26:00.586Z,55.60
2017-05-28T13:28:31.497Z,57.30
2017-05-28T13:31:03.749Z,56.10
2017-05-28T13:33:34.055Z,56.10
2017-05-28T13:36:08.992Z,55.70
2017-05-28T13:38:41.214Z,55.70
2017-05-28T13:41:12.675Z,53.80
2017-05-28T13:43:42.636Z,54.60
2017-05-28T13:46:14.413Z,55.60
2017-05-28T13:48:44.380Z,54.20
2017-05-28T13:51:15.367Z,55.40
2017-05-28T13:53:49.023Z,56.00
2017-05-28T13:56:19.507Z,56.50
2017-05-28T13:58:49.611Z,55.50
2017-05-28T14:01:20.033Z,55.70
2017-05-28T14:03:51.681Z,54.50
2017-05-28T14:06:23.180Z,53.90
2017-05-28T14:08:53.081Z,54.30
2017-05-28T14:11:23.937Z,55.20
2017-05-28T14:13:57.194Z,54.00
2017-05-28T14:16:32.470Z,53.70
2017-05-28T14:19:01.715Z,53.60
2017-05-28T14:21:32.736Z,52.00
2017-05-28T14:24:02.637Z,52.80
2017-05-28T14:26:32.767Z,53.40
2017-05-28T14:29:02.068Z,53.40
2017-05-28T14:31:32.117Z,52.10
2017-05-28T14:34:10.695Z,53.70
2017-05-28T14:37:59.414Z,53.80
2017-05-28T14:40:33.872Z,53.40
2017-05-28T14:43:04.699Z,55.10
2017-05-28T14:45:35.125Z,54.90
2017-05-28T14:48:08.357Z,56.60
2017-05-28T14:50:40.082Z,58.20
2017-05-28T14:53:10.157Z,58.70
2017-05-28T14:55:40.571Z,56.40
2017-05-28T14:58:11.173Z,54.70
2017-05-28T15:00:42.307Z,56.60
2017-05-28T15:03:13.145Z,59.00
2017-05-28T15:05:44.070Z,57.90
2017-05-28T15:08:13.979Z,58.00
2017-05-28T15:10:45.340Z,57.80
2017-05-28T15:13:15.627Z,58.20
2017-05-28T15:15:47.823Z,57.20
2017-05-28T15:18:18.767Z,59.10
2017-05-28T15:20:49.079Z,58.10
2017-05-28T15:23:19.968Z,59.80
2017-05-28T15:25:52.170Z,60.10
2017-05-28T15:28:38.025Z,58.50
2017-05-28T15:33:57.979Z,60.10
2017-05-28T15:36:32.801Z,59.00
2017-05-28T15:39:03.340Z,60.00
2017-05-28T15:41:35.397Z,60.40
2017-05-28T15:44:07.596Z,61.10
2017-05-28T15:46:41.590Z,62.40
2017-05-28T15:49:14.780Z,62.10
2017-05-28T15:51:45.518Z,62.30
2017-05-28T15:54:16.950Z,63.30
2017-05-28T15:56:47.157Z,60.30
2017-05-28T15:59:18.325Z,62.50
2017-05-28T16:01:48.373Z,64.00
2017-05-28T16:04:19.278Z,63.50
2017-05-28T16:09:28.851Z,63.30
2017-05-28T16:11:59.123Z,63.40
2017-05-28T16:14:29.640Z,62.50
2017-05-28T16:16:59.646Z,62.00
2017-05-28T16:19:34.792Z,63.70
2017-05-28T16:23:29.489Z,63.80
2017-05-28T16:25:59.310Z,63.80
2017-05-28T16:28:29.347Z,63.20
2017-05-28T16:31:00.280Z,63.80
2017-05-28T16:33:30.945Z,65.40
2017-05-28T16:36:01.108Z,63.60
2017-05-28T16:38:31.520Z,66.40
2017-05-28T16:42:20.565Z,67.90
2017-05-28T16:44:50.907Z,63.10
2017-05-28T16:47:21.101Z,63.10
2017-05-28T16:49:51.632Z,64.80
2017-05-28T16:54:58.657Z,65.00
2017-05-28T16:57:29.129Z,64.30
2017-05-28T17:00:00.285Z,64.10
2017-05-28T17:02:30.922Z,66.20
2017-05-28T17:05:01.571Z,67.40
2017-05-28T17:07:31.987Z,69.70
2017-05-28T17:10:12.129Z,70.10
2017-05-28T17:12:43.797Z,70.00
2017-05-28T17:15:15.366Z,66.30
2017-05-28T17:17:46.948Z,65.80
2017-05-28T17:20:21.129Z,66.20
2017-05-28T17:22:51.076Z,66.40
2017-05-28T17:25:21.941Z,65.20
2017-05-28T17:27:53.637Z,68.80
2017-05-28T17:30:25.614Z,68.10
2017-05-28T17:32:56.539Z,70.40
2017-05-28T17:35:27.534Z,72.40
2017-05-28T17:37:57.542Z,72.60
2017-05-28T17:40:31.061Z,72.50
2017-05-28T17:43:00.973Z,70.80
2017-05-28T17:46:33.467Z,69.80
2017-05-28T17:49:05.738Z,72.20
2017-05-28T17:51:35.780Z,68.80
2017-05-28T17:54:07.483Z,69.40
2017-05-28T17:56:38.463Z,69.20
2017-05-28T17:59:10.704Z,69.90
2017-05-28T18:01:40.669Z,64.60
2017-05-28T18:04:10.900Z,66.20
2017-05-28T18:06:41.424Z,67.90
2017-05-28T18:09:11.342Z,67.90
2017-05-28T18:11:41.796Z,70.20
2017-05-28T18:14:13.613Z,71.60
2017-05-28T18:16:44.149Z,70.20
2017-05-28T18:19:15.413Z,71.10
2017-05-28T18:21:45.486Z,69.50
2017-05-28T18:24:22.315Z,70.70
2017-05-28T18:26:53.130Z,70.30
2017-05-28T18:29:23.763Z,70.30
2017-05-28T18:31:54.337Z,70.20
2017-05-28T18:34:24.272Z,70.10
2017-05-28T18:36:55.734Z,70.30
2017-05-28T18:39:26.312Z,73.30
2017-05-28T18:41:55.537Z,73.30
2017-05-28T18:44:27.508Z,72.90
2017-05-28T18:46:57.440Z,74.00
2017-05-28T18:49:29.835Z,75.20
2017-05-28T18:52:02.660Z,77.20
2017-05-28T18:54:33.317Z,77.90
2017-05-28T18:57:05.795Z,78.80
2017-05-28T18:59:37.748Z,79.50
2017-05-28T19:02:08.234Z,80.40
2017-05-28T19:04:40.157Z,80.40
2017-05-28T19:07:10.748Z,80.70
2017-05-28T19:09:40.684Z,80.80
2017-05-28T19:12:11.838Z,81.00
2017-05-28T19:14:41.785Z,80.20
2017-05-28T19:17:13.853Z,79.50
2017-05-28T19:19:43.809Z,80.00
2017-05-28T19:22:20.519Z,80.90
2017-05-28T19:24:50.621Z,81.50
2017-05-28T19:27:20.674Z,82.20
2017-05-28T19:29:51.433Z,82.50
2017-05-28T19:32:21.290Z,82.70
2017-05-28T19:34:51.201Z,83.40
2017-05-28T19:37:51.624Z,84.10
2017-05-28T19:40:22.115Z,84.40
2017-05-28T19:42:52.716Z,84.70
2017-05-28T19:45:23.846Z,84.80
2017-05-28T19:47:53.721Z,85.70
2017-05-28T19:50:23.627Z,85.20
2017-05-28T19:52:53.662Z,85.30
2017-05-28T19:55:24.219Z,85.40
2017-05-28T19:57:54.045Z,85.10
2017-05-28T20:00:24.009Z,86.10
2017-05-28T20:02:53.823Z,86.30
2017-05-28T20:05:24.776Z,87.00
2017-05-28T20:07:54.655Z,86.70
2017-05-28T20:10:24.629Z,87.10
2017-05-28T20:12:54.610Z,86.00
2017-05-28T20:15:25.486Z,85.20
2017-05-28T20:17:55.749Z,85.70
2017-05-28T20:21:46.268Z,84.90
2017-05-28T20:24:16.254Z,84.50
2017-05-28T20:26:46.282Z,85.10
2017-05-28T20:29:16.656Z,85.00
2017-05-28T20:31:46.870Z,83.50
2017-05-28T20:34:47.550Z,83.80
2017-05-28T20:37:19.095Z,83.70
2017-05-28T20:41:09.665Z,84.10
2017-05-28T20:43:40.627Z,83.90
2017-05-28T20:46:10.755Z,84.80
2017-05-28T20:48:40.747Z,86.70
2017-05-28T20:51:11.341Z,86.80
2017-05-28T20:53:42.243Z,86.90
2017-05-28T20:56:12.259Z,86.60
2017-05-28T20:58:41.407Z,86.60
2017-05-28T21:01:11.555Z,85.70
2017-05-28T21:03:41.498Z,86.80
2017-05-28T21:06:12.006Z,86.80
2017-05-28T21:08:42.038Z,86.90
2017-05-28T21:11:13.283Z,86.70
2017-05-28T21:13:43.237Z,86.40
2017-05-28T21:16:13.142Z,86.90
2017-05-28T21:18:43.838Z,87.00
2017-05-28T21:21:13.714Z,88.10
2017-05-28T21:23:43.642Z,90.00
2017-05-28T21:26:14.414Z,90.10
2017-05-28T21:28:44.473Z,90.70
2017-05-28T21:31:14.541Z,90.70
2017-05-28T21:33:44.375Z,90.80
2017-05-28T21:36:14.208Z,90.50
2017-05-28T21:38:43.666Z,90.50
2017-05-28T21:41:14.036Z,90.40
2017-05-28T21:43:43.793Z,90.30
2017-05-28T21:46:13.627Z,90.20
2017-05-28T21:48:43.417Z,90.10
2017-05-28T21:51:13.290Z,90.10
2017-05-28T21:53:42.298Z,90.10
2017-05-28T21:56:12.188Z,90.30
2017-05-28T21:58:42.009Z,90.50
2017-05-28T22:01:11.842Z,90.70
2017-05-28T22:03:40.897Z,90.70
2017-05-28T22:06:10.771Z,89.70
2017-05-28T22:08:39.857Z,89.70
2017-05-28T22:11:09.662Z,90.00
2017-05-28T22:13:39.439Z,90.20
2017-05-28T22:16:10.354Z,90.20
2017-05-28T22:18:39.369Z,90.20
2017-05-28T22:21:09.254Z,90.10
2017-05-28T22:23:38.980Z,90.00
2017-05-28T22:26:08.954Z,90.90
2017-05-28T22:28:38.767Z,90.90
2017-05-28T22:31:08.545Z,91.00
2017-05-28T22:33:37.564Z,91.10
2017-05-28T22:37:26.711Z,91.60
2017-05-28T22:39:56.576Z,91.30
2017-05-28T22:42:26.334Z,91.30
2017-05-28T22:44:56.126Z,91.10
2017-05-28T22:47:25.937Z,90.90
2017-05-28T22:49:56.154Z,90.80
2017-05-28T22:52:26.010Z,90.60
2017-05-28T22:54:55.056Z,90.60
2017-05-28T22:57:24.918Z,90.20
2017-05-28T22:59:54.797Z,90.70
2017-05-28T23:02:24.585Z,91.00
2017-05-28T23:04:54.361Z,91.00
2017-05-28T23:07:24.161Z,91.20
2017-05-28T23:09:53.928Z,91.10
2017-05-28T23:12:23.693Z,91.20
2017-05-28T23:14:54.020Z,91.70
2017-05-28T23:17:23.113Z,91.60
2017-05-28T23:19:52.125Z,91.30
2017-05-28T23:22:21.953Z,92.00
2017-05-28T23:24:51.693Z,92.50
2017-05-28T23:27:21.490Z,92.50
2017-05-28T23:29:50.564Z,92.40
2017-05-28T23:32:20.617Z,92.50
2017-05-28T23:34:50.444Z,92.10
2017-05-28T23:37:20.791Z,92.20
2017-05-28T23:39:50.604Z,91.80
2017-05-28T23:42:20.414Z,91.50
2017-05-28T23:44:50.177Z,91.30
2017-05-28T23:47:19.988Z,91.00
2017-05-28T23:49:50.013Z,91.50
2017-05-28T23:52:19.926Z,91.80
2017-05-28T23:54:49.669Z,92.80
2017-05-28T23:57:19.775Z,93.00
2017-05-28T23:59:49.654Z,93.40
